createdAt,value
2023-04-02T15:18:12.098Z,70.68
2023-04-02T15:20:48.552Z,71.22
2023-04-02T15:23:34.382Z,71.63
2023-04-02T15:26:11.905Z,72.31
2023-04-02T15:29:09.293Z,72.85
2023-04-02T15:31:45.752Z,73.26
2023-04-02T15:34:20.080Z,73.50
2023-04-02T15:37:08.153Z,73.20
2023-04-02T15:39:56.801Z,73.90
2023-04-02T15:42:34.142Z,73.84
2023-04-02T15:45:12.811Z,74.42
2023-04-02T15:47:42.389Z,74.50
2023-04-02T15:50:44.065Z,74.98
2023-04-02T15:53:34.866Z,75.37
2023-04-02T15:56:28.430Z,75.55
2023-04-02T15:59:41.229Z,75.84
2023-04-02T16:02:27.327Z,75.68
2023-04-02T16:05:09.110Z,76.37
2023-04-02T16:08:17.173Z,76.46
2023-04-02T16:10:45.557Z,76.36
2023-04-02T16:13:20.781Z,76.87
2023-04-02T16:16:21.200Z,77.47
2023-04-02T16:18:59.240Z,77.26
2023-04-02T16:21:33.264Z,77.59
2023-04-02T16:24:00.185Z,77.54
2023-04-02T16:26:32.520Z,78.06
2023-04-02T16:29:28.636Z,78.34
2023-04-02T16:32:05.053Z,78.38
2023-04-02T16:35:40.925Z,78.56
2023-04-02T16:38:10.468Z,78.32
2023-04-02T16:41:06.812Z,78.95
2023-04-02T16:44:02.124Z,79.56
2023-04-02T16:50:00.017Z,79.84
2023-04-02T16:53:11.443Z,79.99
2023-04-02T16:56:07.814Z,79.96
2023-04-02T16:58:49.788Z,79.92
2023-04-02T17:01:33.545Z,80.15
2023-04-02T17:04:22.997Z,80.23
2023-04-02T17:07:22.915Z,81.00
2023-04-02T17:09:52.231Z,80.78
2023-04-02T17:12:32.534Z,81.07
2023-04-02T17:15:17.034Z,81.38
2023-04-02T17:17:58.071Z,81.68
2023-04-02T17:20:27.125Z,81.62
2023-04-02T17:22:55.792Z,81.05
2023-04-02T17:25:38.583Z,82.06
2023-04-02T17:28:12.492Z,82.29
2023-04-02T17:30:51.259Z,82.56
2023-04-02T17:33:22.039Z,82.03
2023-04-02T17:36:02.242Z,82.49
2023-04-02T17:38:47.873Z,82.60
2023-04-02T17:41:30.546Z,82.55
2023-04-02T17:44:05.913Z,82.14
2023-04-02T17:47:03.267Z,83.10
2023-04-02T17:50:00.924Z,82.96
2023-04-02T17:52:48.598Z,82.52
2023-04-02T17:55:40.635Z,82.83
2023-04-02T17:58:39.402Z,83.10
2023-04-02T18:01:17.470Z,82.52
2023-04-02T18:03:49.230Z,82.74
2023-04-02T18:06:27.734Z,83.32
2023-04-02T18:09:29.605Z,83.73
2023-04-02T18:12:38.778Z,83.20
2023-04-02T18:15:47.659Z,83.70
2023-04-02T18:18:35.012Z,83.21
2023-04-02T18:21:24.537Z,83.82
2023-04-02T18:24:35.746Z,84.04
2023-04-02T18:27:11.362Z,83.71
2023-04-02T18:29:50.002Z,83.59
2023-04-02T18:32:34.904Z,83.61
2023-04-02T18:35:38.834Z,84.91
2023-04-02T18:38:43.665Z,83.86
2023-04-02T18:41:32.384Z,84.56
2023-04-02T18:44:08.848Z,83.90
2023-04-02T18:46:41.742Z,84.07
2023-04-02T18:49:27.770Z,84.75
2023-04-02T18:52:02.441Z,84.15
2023-04-02T18:54:35.883Z,85.11
2023-04-02T18:57:11.552Z,85.22
2023-04-02T19:00:06.737Z,85.22
2023-04-02T19:02:38.833Z,85.26
2023-04-02T19:05:26.250Z,85.23
2023-04-02T19:07:59.891Z,84.97
2023-04-02T19:10:31.501Z,84.57
2023-04-02T19:12:58.089Z,85.24
2023-04-02T19:15:38.553Z,85.78
2023-04-02T19:18:15.896Z,85.67
2023-04-02T19:21:16.506Z,86.35
2023-04-02T19:23:56.729Z,86.36
2023-04-02T19:26:30.716Z,86.14
2023-04-02T19:29:06.293Z,87.09
2023-04-02T19:31:41.735Z,86.56
2023-04-02T19:34:08.436Z,86.17
2023-04-02T19:36:45.015Z,86.83
2023-04-02T19:39:33.424Z,86.29
2023-04-02T19:42:15.455Z,86.65
2023-04-02T19:44:47.331Z,86.45
2023-04-02T19:47:17.754Z,86.18
2023-04-02T19:49:44.953Z,87.25
2023-04-02T19:52:12.326Z,86.92
2023-04-02T19:54:39.048Z,86.97
2023-04-02T19:57:05.965Z,87.08
2023-04-02T19:59:35.143Z,87.57
2023-04-02T20:02:06.785Z,86.71
2023-04-02T20:04:33.532Z,86.92
2023-04-02T20:07:00.177Z,86.62
2023-04-02T20:09:27.633Z,87.46
2023-04-02T20:11:54.180Z,87.02
2023-04-02T20:14:20.783Z,86.59
2023-04-02T20:16:47.857Z,87.23
2023-04-02T20:19:14.490Z,87.16
2023-04-02T20:21:41.230Z,87.14
2023-04-02T20:24:09.567Z,87.64
2023-04-02T20:26:36.706Z,87.13
2023-04-02T20:29:04.081Z,87.44
2023-04-02T20:31:32.299Z,87.80
2023-04-02T20:34:00.014Z,87.10
2023-04-02T20:36:26.760Z,87.54
2023-04-02T20:38:53.469Z,87.95
2023-04-02T20:41:21.876Z,87.43
2023-04-02T20:43:49.898Z,87.65
2023-04-02T20:46:17.141Z,86.95
2023-04-02T20:48:44.157Z,88.21
2023-04-02T20:51:14.489Z,87.89
2023-04-02T20:53:42.261Z,88.35
2023-04-02T20:56:14.408Z,87.23
2023-04-02T20:58:42.186Z,88.33
2023-04-02T21:01:26.553Z,88.16
2023-04-02T21:03:59.355Z,87.91
2023-04-02T21:06:30.386Z,87.76
2023-04-02T21:08:57.324Z,88.08
2023-04-02T21:11:24.758Z,88.09
2023-04-02T21:13:51.807Z,87.87
2023-04-02T21:16:29.228Z,88.12
2023-04-02T21:18:58.411Z,88.05
2023-04-02T21:21:25.934Z,87.94
2023-04-02T21:24:00.640Z,88.27
2023-04-02T21:26:29.091Z,87.47
2023-04-02T21:28:55.998Z,88.27
2023-04-02T21:31:27.442Z,87.72
2023-04-02T21:33:56.966Z,87.84
2023-04-02T21:36:29.352Z,87.95
2023-04-02T21:39:03.749Z,87.94
2023-04-02T21:41:33.946Z,87.57
2023-04-02T21:44:03.227Z,88.32
2023-04-02T21:46:33.594Z,87.59
2023-04-02T21:49:00.973Z,87.77
2023-04-02T21:51:30.064Z,88.03
2023-04-02T21:53:57.724Z,88.46
2023-04-02T21:56:27.117Z,87.94
2023-04-02T21:58:54.690Z,87.74
2023-04-02T22:01:27.342Z,87.52
2023-04-02T22:03:59.312Z,87.43
2023-04-02T22:06:28.128Z,87.95
2023-04-02T22:09:00.405Z,87.97
2023-04-02T22:11:47.548Z,88.04
2023-04-02T22:14:14.494Z,88.08
2023-04-02T22:16:42.594Z,87.78
2023-04-02T22:19:14.736Z,88.10
2023-04-02T22:21:42.017Z,88.60
2023-04-02T22:24:14.844Z,87.80
2023-04-02T22:26:42.237Z,88.01
2023-04-02T22:29:09.310Z,88.03
2023-04-02T22:31:36.044Z,87.89
2023-04-02T22:34:04.765Z,87.63
2023-04-02T22:36:31.848Z,87.49
2023-04-02T22:39:01.697Z,87.36
2023-04-02T22:41:29.604Z,87.81
2023-04-02T22:43:56.977Z,88.47
2023-04-02T22:46:25.787Z,87.92
2023-04-02T22:48:53.728Z,88.02
2023-04-02T22:51:21.781Z,88.08
2023-04-02T22:53:49.587Z,87.98
2023-04-02T22:56:23.018Z,87.87
2023-04-02T22:58:49.869Z,87.95
2023-04-02T23:01:23.093Z,87.85
2023-04-02T23:03:52.585Z,88.01
2023-04-02T23:06:19.328Z,88.73
2023-04-02T23:08:47.054Z,88.56
2023-04-02T23:11:19.914Z,88.63
2023-04-02T23:13:48.782Z,88.90
2023-04-02T23:16:16.459Z,88.55
2023-04-02T23:18:48.888Z,88.61
2023-04-02T23:21:16.909Z,88.24
2023-04-02T23:23:44.171Z,88.83
2023-04-02T23:26:14.929Z,88.50
2023-04-02T23:28:42.295Z,88.51
2023-04-02T23:31:13.258Z,88.20
2023-04-02T23:33:40.498Z,87.97
2023-04-02T23:36:16.459Z,88.60
2023-04-02T23:38:43.973Z,88.37
2023-04-02T23:41:15.424Z,88.58
2023-04-02T23:43:42.782Z,88.97
2023-04-02T23:46:09.482Z,88.83
2023-04-02T23:48:36.242Z,88.40
2023-04-02T23:51:02.799Z,88.59
2023-04-02T23:53:29.401Z,88.62
2023-04-02T23:55:56.210Z,88.80
2023-04-02T23:58:22.816Z,88.36
